Time;durP1;ratioP1;P1;durP2;ratioP2;P2;SDS_P1;SDS_P2;PMS_P1;PMS_P2;Temp;Humidity;BMP_temperature;BMP_pressure;BME280_temperature;BME280_humidity;BME280_pressure;Samples;Min_cycle;Max_cycle;Signal;HPM_P1;HPM_P2
2023/05/11 00:01:10;;;;;;;46.55;43.15;;;11.80;99.90;;;;;;5228008;28;20036;-74
2023/05/11 00:03:42;;;;;;;47.90;44.88;;;11.80;99.90;;;;;;5228246;28;20094;-74
2023/05/11 00:06:13;;;;;;;50.20;46.97;;;11.80;99.90;;;;;;5227888;28;20414;-75
2023/05/11 00:08:43;;;;;;;47.28;44.17;;;11.70;99.90;;;;;;5227808;28;20128;-75
2023/05/11 00:11:15;;;;;;;50.50;47.30;;;11.80;99.90;;;;;;5228001;28;20374;-75
2023/05/11 00:13:46;;;;;;;47.92;44.90;;;11.90;99.90;;;;;;5227698;28;20048;-73
2023/05/11 00:16:17;;;;;;;48.13;44.92;;;11.80;99.90;;;;;;5227745;28;20060;-73
2023/05/11 00:18:48;;;;;;;46.22;42.95;;;11.80;99.90;;;;;;5227812;28;20444;-72
2023/05/11 00:21:19;;;;;;;46.88;43.58;;;11.80;99.90;;;;;;5227633;28;20031;-73
2023/05/11 00:23:50;;;;;;;47.85;44.45;;;11.80;99.90;;;;;;5227780;28;20025;-74
2023/05/11 00:26:21;;;;;;;40.20;37.53;;;11.80;99.90;;;;;;5227921;28;20043;-74
2023/05/11 00:28:52;;;;;;;45.75;42.90;;;11.80;99.90;;;;;;5226712;28;20021;-73
2023/05/11 00:31:23;;;;;;;39.97;37.22;;;11.70;99.90;;;;;;5227509;28;20037;-73
2023/05/11 00:33:53;;;;;;;39.78;36.95;;;11.70;99.90;;;;;;5227675;28;20096;-73
2023/05/11 00:36:25;;;;;;;35.88;33.35;;;11.80;99.90;;;;;;5227702;28;20037;-74
2023/05/11 00:38:55;;;;;;;33.38;31.08;;;11.70;99.90;;;;;;5227569;28;20037;-73
2023/05/11 00:41:26;;;;;;;33.35;30.52;;;11.70;99.90;;;;;;5226159;28;20097;-73
2023/05/11 00:43:57;;;;;;;35.20;32.65;;;11.80;99.90;;;;;;5226089;28;20025;-73
2023/05/11 00:46:28;;;;;;;29.73;27.63;;;11.80;99.90;;;;;;5227515;28;20052;-73
2023/05/11 00:48:59;;;;;;;34.38;31.77;;;11.80;99.90;;;;;;5227456;28;20640;-73
2023/05/11 00:51:31;;;;;;;31.48;29.35;;;11.80;99.90;;;;;;5227154;28;20029;-73
2023/05/11 00:54:02;;;;;;;35.05;32.65;;;11.80;99.90;;;;;;5227085;28;20099;-73
2023/05/11 00:56:33;;;;;;;31.83;29.63;;;11.80;99.90;;;;;;5226979;28;20033;-73
2023/05/11 00:59:04;;;;;;;34.70;32.15;;;11.80;99.90;;;;;;5226936;28;20029;-75
2023/05/11 01:01:38;;;;;;;33.90;31.27;;;11.90;99.90;;;;;;5227159;28;20099;-75
2023/05/11 01:04:09;;;;;;;37.08;34.53;;;11.80;99.90;;;;;;5225495;28;20025;-73
2023/05/11 01:07:07;;;;;;;36.63;33.90;;;11.80;99.90;;;;;;5226990;28;20032;-76
2023/05/11 01:10:07;;;;;;;31.95;29.52;;;11.70;99.90;;;;;;5218306;28;20045;-73
2023/05/11 01:13:02;;;;;;;30.73;28.50;;;11.80;99.90;;;;;;5225358;28;20538;-73
2023/05/11 01:15:47;;;;;;;32.00;29.58;;;11.70;99.90;;;;;;5226634;28;20041;-73
2023/05/11 01:18:39;;;;;;;32.13;29.88;;;11.80;99.90;;;;;;5226889;28;20021;-73
2023/05/11 01:21:10;;;;;;;31.63;29.17;;;11.60;99.90;;;;;;5225653;28;20473;-75
2023/05/11 01:24:20;;;;;;;32.38;30.02;;;11.70;99.90;;;;;;5226419;28;20033;-74
2023/05/11 01:27:02;;;;;;;29.45;27.23;;;11.60;99.90;;;;;;5225205;28;20028;-74
2023/05/11 01:29:40;;;;;;;27.77;25.73;;;11.60;99.90;;;;;;5226398;28;20029;-73
2023/05/11 01:32:21;;;;;;;29.02;26.73;;;11.70;99.90;;;;;;5226425;28;20416;-75
2023/05/11 01:35:21;;;;;;;30.98;28.77;;;11.70;99.90;;;;;;5226293;28;20032;-76
2023/05/11 01:37:54;;;;;;;;;;;11.70;99.90;;;;;;5220732;28;20033;-74
2023/05/11 01:40:30;;;;;;;27.27;25.17;;;11.60;99.90;;;;;;5226261;28;19913;-75
2023/05/11 01:43:10;;;;;;;29.52;27.08;;;11.70;99.90;;;;;;5224817;28;20021;-74
2023/05/11 01:45:45;;;;;;;26.15;24.25;;;11.50;99.90;;;;;;5226063;28;20090;-74
2023/05/11 01:48:20;;;;;;;27.30;25.10;;;11.40;99.90;;;;;;5226376;28;20021;-74
2023/05/11 01:50:51;;;;;;;26.23;24.10;;;11.50;99.90;;;;;;5226085;28;20111;-76
2023/05/11 01:53:25;;;;;;;27.58;25.35;;;11.70;99.90;;;;;;5226247;28;20018;-74
2023/05/11 01:55:57;;;;;;;27.75;25.55;;;11.60;99.90;;;;;;5225737;28;20079;-75
2023/05/11 01:58:29;;;;;;;30.52;28.52;;;11.60;99.90;;;;;;5226112;28;20025;-73
2023/05/11 02:01:02;;;;;;;28.55;26.55;;;11.70;99.90;;;;;;5226052;28;20074;-74
2023/05/11 02:03:36;;;;;;;30.77;28.60;;;11.70;99.90;;;;;;5224763;28;20025;-74
2023/05/11 02:06:08;;;;;;;30.88;28.67;;;11.80;99.90;;;;;;5225955;28;20036;-74
2023/05/11 02:08:40;;;;;;;32.15;29.35;;;11.70;99.90;;;;;;5225662;28;20036;-73
2023/05/11 02:11:12;;;;;;;30.13;27.98;;;11.70;99.90;;;;;;5224740;28;20037;-73
2023/05/11 02:13:46;;;;;;;28.33;26.23;;;11.60;99.90;;;;;;5225915;28;20422;-73
2023/05/11 02:16:18;;;;;;;28.33;26.25;;;11.60;99.90;;;;;;5228038;28;20072;-73
2023/05/11 02:18:50;;;;;;;30.52;28.52;;;11.70;99.90;;;;;;5230134;28;20025;-74
2023/05/11 02:21:21;;;;;;;29.38;27.13;;;11.70;99.90;;;;;;5229998;28;20029;-74
2023/05/11 02:23:53;;;;;;;30.15;28.00;;;11.70;99.90;;;;;;5230058;28;20025;-74
2023/05/11 02:26:24;;;;;;;29.90;27.65;;;11.70;99.90;;;;;;5228853;28;20059;-75
2023/05/11 02:28:55;;;;;;;31.67;29.40;;;11.70;99.90;;;;;;5229628;28;20021;-74
2023/05/11 02:31:31;;;;;;;28.38;26.58;;;11.70;99.90;;;;;;5229875;28;20094;-73
2023/05/11 02:34:08;;;;;;;28.05;25.75;;;11.60;99.90;;;;;;5228167;28;20123;-73
2023/05/11 02:36:41;;;;;;;29.88;27.63;;;11.70;99.90;;;;;;5229764;28;20059;-73
2023/05/11 02:39:14;;;;;;;30.05;28.02;;;11.60;99.90;;;;;;5228283;28;20058;-73
2023/05/11 02:41:46;;;;;;;30.42;28.33;;;11.60;99.90;;;;;;5229487;28;20037;-73
2023/05/11 02:44:20;;;;;;;29.52;27.33;;;11.60;99.90;;;;;;5229655;28;20024;-73
2023/05/11 02:46:53;;;;;;;31.55;29.10;;;11.60;99.90;;;;;;5229677;28;20484;-73
2023/05/11 02:49:27;;;;;;;30.45;28.38;;;11.40;99.90;;;;;;5229550;28;20025;-74
2023/05/11 02:52:00;;;;;;;48.35;36.35;;;11.40;99.90;;;;;;5227782;28;20473;-73
2023/05/11 02:54:31;;;;;;;39.53;35.45;;;11.50;99.90;;;;;;5228228;28;20037;-73
2023/05/11 02:57:02;;;;;;;30.88;28.73;;;11.60;99.90;;;;;;5229732;28;20029;-73
2023/05/11 02:59:33;;;;;;;30.73;28.70;;;11.20;99.90;;;;;;5229237;28;20100;-73
2023/05/11 03:02:05;;;;;;;28.40;26.10;;;11.20;99.90;;;;;;5229328;28;20167;-74
2023/05/11 03:04:36;;;;;;;30.90;27.85;;;11.20;99.90;;;;;;5229230;28;20017;-75
2023/05/11 03:07:07;;;;;;;26.42;24.27;;;11.30;99.90;;;;;;5228135;28;20078;-74
2023/05/11 03:09:38;;;;;;;26.20;24.30;;;11.10;99.90;;;;;;5227788;28;20041;-73
2023/05/11 03:12:09;;;;;;;26.73;24.83;;;11.40;99.90;;;;;;5228959;28;20678;-73
2023/05/11 03:14:41;;;;;;;25.65;24.05;;;11.20;99.90;;;;;;5227660;28;20040;-74
2023/05/11 03:17:13;;;;;;;27.67;25.02;;;11.30;99.90;;;;;;5228810;28;20025;-73
2023/05/11 03:19:44;;;;;;;27.23;25.23;;;11.30;99.90;;;;;;5228851;28;20029;-73
2023/05/11 03:22:15;;;;;;;27.00;25.02;;;11.30;99.90;;;;;;5228960;28;20114;-76
2023/05/11 03:24:47;;;;;;;27.02;24.85;;;11.20;99.90;;;;;;5228689;28;20079;-73
2023/05/11 03:27:19;;;;;;;25.52;23.52;;;11.10;99.90;;;;;;5226230;28;20024;-73
2023/05/11 03:29:51;;;;;;;27.77;25.75;;;11.30;99.90;;;;;;5228710;28;20029;-75
2023/05/11 03:32:22;;;;;;;25.27;23.35;;;11.30;99.90;;;;;;5228440;28;20029;-73
2023/05/11 03:34:53;;;;;;;29.05;26.75;;;11.30;99.90;;;;;;5228563;28;20035;-74
2023/05/11 03:37:24;;;;;;;28.20;26.45;;;11.30;99.90;;;;;;5227066;28;20029;-75
2023/05/11 03:39:58;;;;;;;28.02;25.75;;;11.20;99.90;;;;;;5228618;28;20032;-75
2023/05/11 03:42:31;;;;;;;25.02;23.08;;;11.40;99.90;;;;;;5228622;28;20036;-74
2023/05/11 03:45:04;;;;;;;29.70;27.52;;;11.50;99.90;;;;;;5228349;28;20025;-73
2023/05/11 03:47:38;;;;;;;29.73;27.42;;;11.50;99.90;;;;;;5228257;28;20037;-73
2023/05/11 03:50:10;;;;;;;30.38;27.98;;;11.70;99.90;;;;;;5228324;28;20028;-74
2023/05/11 03:52:41;;;;;;;30.52;27.98;;;11.60;99.90;;;;;;5227130;28;20465;-74
2023/05/11 03:55:12;;;;;;;32.08;29.02;;;11.70;99.90;;;;;;5228097;28;20512;-73
2023/05/11 03:57:43;;;;;;;29.15;26.73;;;11.70;99.90;;;;;;5228254;28;20025;-73
2023/05/11 04:00:15;;;;;;;28.10;25.88;;;11.80;99.90;;;;;;5228355;28;20473;-74
2023/05/11 04:02:46;;;;;;;29.83;27.75;;;11.70;99.90;;;;;;5228109;28;20021;-74
2023/05/11 04:05:18;;;;;;;28.65;26.42;;;11.80;99.90;;;;;;5227824;28;20017;-73
2023/05/11 04:07:50;;;;;;;27.35;25.17;;;11.80;99.90;;;;;;5226561;28;20029;-75
2023/05/11 04:10:21;;;;;;;24.98;22.98;;;11.80;99.90;;;;;;5226686;28;20068;-73
2023/05/11 04:12:52;;;;;;;28.40;26.27;;;11.90;99.90;;;;;;5227874;28;20094;-73
2023/05/11 04:15:23;;;;;;;27.42;25.15;;;11.90;99.90;;;;;;5227706;28;20107;-73
2023/05/11 04:17:54;;;;;;;28.45;26.20;;;12.00;99.90;;;;;;5227476;28;20566;-74
2023/05/11 04:20:25;;;;;;;28.25;26.20;;;11.90;99.90;;;;;;5226446;28;20025;-74
2023/05/11 04:22:56;;;;;;;27.42;25.33;;;11.90;99.90;;;;;;5227961;28;20502;-73
2023/05/11 04:25:27;;;;;;;27.85;25.65;;;12.00;99.90;;;;;;5227739;28;20397;-74
2023/05/11 04:27:58;;;;;;;27.42;25.58;;;12.00;99.90;;;;;;5227632;28;20092;-73
2023/05/11 04:30:29;;;;;;;28.50;26.30;;;12.10;99.90;;;;;;5227434;28;20774;-72
2023/05/11 04:33:00;;;;;;;28.05;26.20;;;12.00;99.90;;;;;;5227836;28;20100;-73
2023/05/11 04:35:30;;;;;;;25.42;23.63;;;12.00;99.90;;;;;;5227605;28;20102;-74
2023/05/11 04:38:01;;;;;;;26.88;24.77;;;12.00;99.90;;;;;;5227138;28;20033;-75
2023/05/11 04:40:34;;;;;;;27.17;25.35;;;12.10;99.90;;;;;;5227625;28;20439;-73
2023/05/11 04:43:05;;;;;;;31.38;29.20;;;12.10;99.90;;;;;;5227479;28;20082;-73
2023/05/11 04:45:36;;;;;;;31.75;29.35;;;12.20;99.90;;;;;;5226017;28;20033;-73
2023/05/11 04:48:07;;;;;;;31.65;29.20;;;12.20;99.90;;;;;;5227212;28;20025;-73
2023/05/11 04:50:37;;;;;;;32.47;30.33;;;12.20;99.90;;;;;;5225909;28;20079;-73
2023/05/11 04:53:09;;;;;;;33.55;31.13;;;12.20;99.90;;;;;;5227079;28;20100;-75
2023/05/11 04:55:40;;;;;;;33.13;30.70;;;12.30;99.90;;;;;;5225635;28;20041;-75
2023/05/11 04:58:13;;;;;;;32.83;30.63;;;12.30;99.90;;;;;;5226751;28;20036;-75
2023/05/11 05:00:44;;;;;;;30.20;28.38;;;12.30;99.90;;;;;;5226981;28;20033;-76
2023/05/11 05:03:15;;;;;;;30.20;28.10;;;12.40;99.90;;;;;;5226956;28;20021;-75
2023/05/11 05:05:46;;;;;;;33.60;31.20;;;12.40;99.90;;;;;;5227133;28;20028;-74
2023/05/11 05:08:17;;;;;;;32.13;29.98;;;12.50;99.90;;;;;;5226752;28;20063;-73
2023/05/11 05:10:48;;;;;;;29.40;27.50;;;12.50;99.90;;;;;;5227213;28;20393;-73
2023/05/11 05:13:19;;;;;;;32.50;30.20;;;12.40;99.90;;;;;;5226306;28;20031;-72
2023/05/11 05:15:50;;;;;;;32.20;29.92;;;12.40;99.90;;;;;;5225574;28;20072;-74
2023/05/11 05:18:20;;;;;;;29.67;27.52;;;12.50;99.90;;;;;;5226709;28;20029;-73
2023/05/11 05:20:51;;;;;;;31.67;29.33;;;12.80;99.90;;;;;;5226311;28;20040;-73
2023/05/11 05:23:22;;;;;;;34.03;31.58;;;12.90;99.90;;;;;;5226302;28;20473;-72
2023/05/11 05:25:54;;;;;;;31.85;29.90;;;13.30;99.90;;;;;;5225141;28;20049;-75
2023/05/11 05:28:25;;;;;;;33.40;30.77;;;13.30;99.90;;;;;;5226267;28;20079;-73
2023/05/11 05:30:57;;;;;;;33.15;31.00;;;13.50;99.90;;;;;;5226540;28;20476;-74
2023/05/11 05:33:28;;;;;;;32.28;29.73;;;13.30;99.90;;;;;;5226235;28;20036;-73
2023/05/11 05:35:59;;;;;;;31.83;29.60;;;13.10;99.90;;;;;;5226406;28;20036;-73
2023/05/11 05:38:30;;;;;;;30.70;28.52;;;13.20;99.90;;;;;;5226138;28;20374;-74
2023/05/11 05:41:01;;;;;;;31.10;28.83;;;13.10;99.90;;;;;;5226575;28;20029;-73
2023/05/11 05:43:32;;;;;;;27.10;25.02;;;12.90;99.90;;;;;;5226615;28;20095;-73
2023/05/11 05:46:03;;;;;;;27.60;25.35;;;13.10;99.90;;;;;;5226537;28;20119;-74
2023/05/11 05:48:33;;;;;;;26.98;24.70;;;13.50;99.90;;;;;;5226080;28;20496;-73
2023/05/11 05:51:04;;;;;;;26.85;25.00;;;13.20;99.90;;;;;;5225867;28;20021;-74
2023/05/11 05:53:36;;;;;;;25.48;23.88;;;13.20;99.90;;;;;;5226204;28;20032;-75
2023/05/11 05:56:07;;;;;;;26.17;24.35;;;13.00;99.90;;;;;;5226142;28;20036;-74
2023/05/11 05:58:38;;;;;;;25.95;24.17;;;12.90;99.90;;;;;;5226261;28;20021;-74
2023/05/11 06:01:09;;;;;;;29.15;27.20;;;12.90;99.90;;;;;;5226199;28;20078;-73
2023/05/11 06:03:39;;;;;;;27.83;25.83;;;13.10;99.90;;;;;;5226127;28;20128;-75
2023/05/11 06:06:10;;;;;;;31.50;29.35;;;13.20;99.90;;;;;;5226305;28;20075;-74
2023/05/11 06:08:42;;;;;;;31.40;29.35;;;13.40;99.90;;;;;;5225722;28;20044;-72
2023/05/11 06:11:13;;;;;;;33.97;31.73;;;13.20;99.90;;;;;;5226001;28;20091;-73
2023/05/11 06:13:44;;;;;;;36.17;33.92;;;13.10;99.90;;;;;;5225892;28;20024;-73
2023/05/11 06:16:15;;;;;;;33.30;31.30;;;13.10;99.90;;;;;;5226084;28;20048;-76
2023/05/11 06:18:46;;;;;;;37.08;34.55;;;13.20;99.90;;;;;;5226161;28;20024;-73
2023/05/11 06:21:16;;;;;;;34.25;32.15;;;13.10;99.90;;;;;;5226075;28;20025;-73
2023/05/11 06:23:47;;;;;;;33.70;31.50;;;13.10;99.90;;;;;;5225802;28;20025;-73
2023/05/11 06:26:18;;;;;;;34.53;32.17;;;13.30;99.90;;;;;;5225825;28;20075;-74
2023/05/11 06:28:49;;;;;;;32.55;30.35;;;13.30;99.90;;;;;;5225561;28;20029;-72
2023/05/11 06:31:21;;;;;;;29.52;27.52;;;13.50;99.90;;;;;;5225977;28;20029;-73
2023/05/11 06:33:52;;;;;;;32.65;30.35;;;13.30;99.90;;;;;;5225817;28;20025;-72
2023/05/11 06:36:24;;;;;;;32.58;30.33;;;13.40;99.90;;;;;;5225499;28;20040;-72
2023/05/11 06:38:55;;;;;;;32.45;30.33;;;13.10;99.90;;;;;;5225665;28;20025;-74
2023/05/11 06:41:26;;;;;;;31.85;29.55;;;13.30;99.90;;;;;;5225878;28;20037;-73
2023/05/11 06:43:56;;;;;;;33.25;31.17;;;13.20;99.90;;;;;;5225649;28;20033;-74
2023/05/11 06:46:27;;;;;;;32.17;29.88;;;13.40;99.90;;;;;;5225686;28;20025;-74
2023/05/11 06:48:59;;;;;;;33.20;30.83;;;13.30;99.90;;;;;;5225591;28;20476;-74
2023/05/11 06:51:30;;;;;;;33.50;31.38;;;13.00;99.90;;;;;;5225762;28;20158;-73
2023/05/11 06:54:02;;;;;;;33.53;31.23;;;13.10;99.90;;;;;;5224326;28;20072;-73
2023/05/11 06:56:33;;;;;;;34.40;31.90;;;13.00;99.90;;;;;;5224487;28;20072;-74
2023/05/11 06:59:04;;;;;;;33.90;31.63;;;13.20;99.90;;;;;;5225767;28;20025;-76
2023/05/11 07:01:35;;;;;;;34.30;32.08;;;13.10;99.90;;;;;;5227601;28;20428;-75
2023/05/11 07:04:06;;;;;;;34.10;31.70;;;13.50;99.90;;;;;;5229193;28;20158;-73
2023/05/11 07:06:37;;;;;;;36.25;33.38;;;13.50;99.90;;;;;;5229276;28;20033;-72
2023/05/11 07:09:07;;;;;;;34.42;32.22;;;13.40;99.90;;;;;;5228877;28;20078;-73
2023/05/11 07:11:39;;;;;;;34.67;32.38;;;13.60;99.90;;;;;;5229161;28;20489;-74
2023/05/11 07:14:11;;;;;;;36.42;34.05;;;13.50;99.90;;;;;;5227808;28;20029;-75
2023/05/11 07:16:41;;;;;;;39.90;37.35;;;13.40;99.90;;;;;;5229010;28;20416;-74
2023/05/11 07:19:13;;;;;;;39.35;36.67;;;13.20;99.90;;;;;;5228969;28;20021;-73
2023/05/11 07:21:44;;;;;;;39.85;37.33;;;13.30;99.90;;;;;;5229090;28;20473;-73
2023/05/11 07:24:14;;;;;;;41.55;39.08;;;13.40;99.90;;;;;;5228822;28;20033;-74
2023/05/11 07:26:45;;;;;;;39.38;36.60;;;13.60;99.90;;;;;;5229147;28;20078;-76
2023/05/11 07:29:16;;;;;;;39.08;36.55;;;13.40;99.90;;;;;;5228787;28;20021;-73
2023/05/11 07:31:47;;;;;;;41.35;38.72;;;13.30;99.90;;;;;;5228634;28;20460;-73
2023/05/11 07:34:18;;;;;;;40.42;37.63;;;13.40;99.90;;;;;;5228704;28;20231;-72
2023/05/11 07:36:49;;;;;;;40.55;38.17;;;13.60;99.90;;;;;;5228500;28;20029;-73
2023/05/11 07:39:20;;;;;;;37.38;34.67;;;13.60;99.90;;;;;;5228380;28;20031;-73
2023/05/11 07:41:51;;;;;;;36.10;33.75;;;13.60;99.90;;;;;;5227129;28;20025;-75
2023/05/11 07:44:21;;;;;;;35.47;33.10;;;14.00;99.90;;;;;;5228328;28;20040;-75
2023/05/11 07:46:53;;;;;;;31.42;29.23;;;14.00;99.90;;;;;;5228303;28;20031;-73
2023/05/11 07:49:24;;;;;;;30.02;28.00;;;13.90;99.90;;;;;;5228371;28;20028;-74
2023/05/11 07:51:55;;;;;;;29.80;27.70;;;13.70;99.90;;;;;;5228123;28;20024;-75
2023/05/11 07:54:26;;;;;;;28.33;26.25;;;14.00;99.90;;;;;;5228094;28;20381;-73
2023/05/11 07:56:57;;;;;;;28.48;26.42;;;14.00;99.90;;;;;;5228121;28;20175;-73
2023/05/11 07:59:27;;;;;;;30.77;28.23;;;13.70;99.90;;;;;;5227939;28;20095;-74
2023/05/11 08:01:58;;;;;;;33.25;30.83;;;13.50;99.90;;;;;;5226774;28;20021;-73
2023/05/11 08:04:29;;;;;;;31.90;29.77;;;13.60;99.90;;;;;;5228201;28;20169;-73
2023/05/11 08:07:00;;;;;;;32.38;30.23;;;13.50;99.90;;;;;;5228236;28;20033;-74
2023/05/11 08:09:31;;;;;;;31.13;29.13;;;13.70;99.90;;;;;;5227824;28;20043;-73
2023/05/11 08:12:02;;;;;;;31.42;29.13;;;13.90;99.90;;;;;;5227473;28;20033;-73
2023/05/11 08:14:33;;;;;;;31.25;29.17;;;14.10;99.90;;;;;;5227966;28;20043;-73
2023/05/11 08:17:04;;;;;;;31.98;29.35;;;13.90;99.90;;;;;;5227923;28;20033;-74
2023/05/11 08:19:35;;;;;;;31.88;29.67;;;13.80;99.90;;;;;;5227881;28;20508;-75
2023/05/11 08:22:06;;;;;;;29.30;27.30;;;13.90;99.90;;;;;;5227824;28;20021;-74
2023/05/11 08:24:37;;;;;;;28.17;26.13;;;14.10;99.90;;;;;;5227899;28;20025;-73
2023/05/11 08:27:08;;;;;;;28.05;26.08;;;14.20;99.90;;;;;;5226739;28;20032;-73
2023/05/11 08:29:39;;;;;;;27.85;25.90;;;14.00;99.90;;;;;;5227610;28;20720;-73
2023/05/11 08:32:10;;;;;;;26.42;24.73;;;14.10;99.90;;;;;;5227897;28;20025;-75
2023/05/11 08:34:41;;;;;;;24.77;23.05;;;14.30;99.90;;;;;;5227363;28;20031;-73
2023/05/11 08:37:12;;;;;;;28.33;26.42;;;14.10;99.90;;;;;;5227229;28;20047;-73
2023/05/11 08:39:43;;;;;;;26.77;25.05;;;14.20;99.90;;;;;;5225969;28;20427;-72
2023/05/11 08:42:16;;;;;;;25.33;23.45;;;14.50;99.90;;;;;;5227470;28;20771;-74
2023/05/11 08:44:48;;;;;;;21.08;19.52;;;14.80;99.90;;;;;;5227512;28;20101;-73
2023/05/11 08:47:19;;;;;;;25.42;23.25;;;14.30;99.90;;;;;;5227060;28;20021;-73
2023/05/11 08:49:51;;;;;;;26.70;24.80;;;14.50;99.90;;;;;;5227248;28;20025;-74
2023/05/11 08:52:24;;;;;;;23.40;21.52;;;14.60;99.90;;;;;;5227215;28;20031;-73
2023/05/11 08:54:55;;;;;;;21.33;19.73;;;15.00;99.90;;;;;;5227192;28;20540;-75
2023/05/11 08:57:30;;;;;;;22.63;21.00;;;14.50;99.90;;;;;;5226939;28;20113;-73
2023/05/11 09:00:03;;;;;;;22.70;21.10;;;15.20;99.90;;;;;;5225696;28;20487;-72
2023/05/11 09:02:34;;;;;;;21.92;20.23;;;15.20;99.90;;;;;;5226812;28;20427;-73
2023/05/11 09:05:06;;;;;;;19.60;18.17;;;15.50;99.90;;;;;;5225508;28;20563;-73
2023/05/11 09:07:40;;;;;;;22.80;21.40;;;15.00;99.90;;;;;;5225396;28;20025;-72
2023/05/11 09:10:11;;;;;;;25.50;23.58;;;14.80;99.90;;;;;;5226757;28;20037;-72
2023/05/11 09:12:42;;;;;;;25.30;23.17;;;14.90;99.90;;;;;;5226381;28;20086;-72
2023/05/11 09:15:13;;;;;;;23.95;22.40;;;14.70;99.90;;;;;;5226673;28;20036;-75
2023/05/11 09:17:44;;;;;;;26.67;24.88;;;14.80;99.90;;;;;;5226621;28;20731;-74
2023/05/11 09:20:15;;;;;;;24.02;22.58;;;14.90;99.90;;;;;;5226677;28;20021;-75
2023/05/11 09:22:46;;;;;;;26.40;24.00;;;14.90;99.90;;;;;;5226554;28;20531;-73
2023/05/11 09:25:17;;;;;;;24.48;22.58;;;14.90;99.90;;;;;;5226419;28;20035;-73
2023/05/11 09:27:48;;;;;;;24.65;22.73;;;14.90;99.90;;;;;;5224979;28;20021;-72
2023/05/11 09:30:21;;;;;;;25.17;23.55;;;15.10;99.90;;;;;;5226521;28;20025;-75
2023/05/11 09:32:54;;;;;;;23.23;21.33;;;15.00;99.90;;;;;;5226592;28;20013;-73
2023/05/11 09:35:26;;;;;;;27.30;25.25;;;14.80;99.90;;;;;;5225092;28;20060;-73
2023/05/11 09:38:11;;;;;;;24.80;23.00;;;14.60;99.90;;;;;;5226497;28;20025;-72
2023/05/11 09:40:51;;;;;;;27.10;25.45;;;14.70;99.90;;;;;;5226634;28;20029;-71
2023/05/11 09:43:29;;;;;;;27.60;25.60;;;15.30;99.90;;;;;;5226340;28;20031;-73
2023/05/11 09:46:03;;;;;;;27.13;25.02;;;15.10;99.90;;;;;;5225366;28;20128;-73
2023/05/11 09:48:34;;;;;;;26.63;24.83;;;15.00;99.90;;;;;;5224893;28;20036;-73
2023/05/11 09:51:07;;;;;;;28.45;26.33;;;14.70;99.90;;;;;;5226317;28;20032;-73
2023/05/11 09:53:44;;;;;;;27.15;25.10;;;14.60;99.90;;;;;;5226183;28;20097;-73
2023/05/11 09:56:15;;;;;;;29.25;27.20;;;15.10;99.90;;;;;;5226085;28;20045;-74
2023/05/11 09:58:52;;;;;;;29.75;27.52;;;14.90;99.90;;;;;;5226277;28;20032;-73
2023/05/11 10:01:33;;;;;;;27.85;26.05;;;14.70;99.90;;;;;;5224908;28;20027;-73
2023/05/11 10:04:05;;;;;;;26.55;24.50;;;14.70;99.90;;;;;;5224762;28;20021;-74
2023/05/11 10:06:52;;;;;;;28.92;26.80;;;14.70;99.90;;;;;;5225955;28;20103;-74
2023/05/11 10:09:27;;;;;;;26.52;24.83;;;14.70;99.90;;;;;;5226003;28;20400;-73
2023/05/11 10:12:00;;;;;;;28.08;26.08;;;15.20;99.90;;;;;;5226256;28;20028;-75
2023/05/11 10:14:32;;;;;;;25.13;23.35;;;15.10;99.90;;;;;;5225913;28;20056;-73
2023/05/11 10:17:03;;;;;;;26.70;24.85;;;15.40;99.90;;;;;;5226152;28;20025;-74
2023/05/11 10:19:34;;;;;;;27.77;25.70;;;15.00;99.90;;;;;;5226086;28;20396;-74
2023/05/11 10:22:05;;;;;;;28.27;26.40;;;14.80;99.90;;;;;;5225879;28;20036;-74
2023/05/11 10:24:38;;;;;;;28.63;26.45;;;15.10;99.90;;;;;;5225534;28;20024;-73
2023/05/11 10:27:11;;;;;;;26.58;24.27;;;15.30;99.90;;;;;;5225986;28;20036;-73
2023/05/11 10:29:43;;;;;;;24.83;22.83;;;15.30;99.90;;;;;;5226111;28;20079;-73
2023/05/11 10:32:16;;;;;;;23.25;21.40;;;15.00;99.90;;;;;;5224426;28;20396;-74
2023/05/11 10:34:49;;;;;;;22.55;20.85;;;15.10;99.90;;;;;;5225569;28;20146;-73
2023/05/11 10:37:21;;;;;;;23.98;21.58;;;15.20;99.90;;;;;;5229234;28;20040;-74
2023/05/11 10:39:52;;;;;;;22.38;20.67;;;15.10;99.90;;;;;;5228691;28;20029;-73
2023/05/11 10:42:28;;;;;;;27.30;25.23;;;14.90;99.90;;;;;;5229687;28;20055;-73
2023/05/11 10:45:16;;;;;;;25.67;23.52;;;15.10;99.90;;;;;;5229782;28;20509;-73
2023/05/11 10:48:23;;;;;;;25.90;23.85;;;15.20;99.90;;;;;;5229941;28;20054;-73
2023/05/11 10:51:20;;;;;;;25.23;23.42;;;15.10;99.90;;;;;;5228797;28;20021;-75
2023/05/11 10:54:10;;;;;;;25.98;24.02;;;15.20;99.90;;;;;;5229560;28;20025;-74
2023/05/11 10:56:51;;;;;;;24.83;22.90;;;15.80;99.90;;;;;;5228348;28;20346;-74
2023/05/11 10:59:37;;;;;;;23.17;21.17;;;15.60;99.90;;;;;;5228264;28;20018;-73
2023/05/11 11:02:09;;;;;;;23.45;21.23;;;15.20;99.90;;;;;;5228505;28;20035;-73
2023/05/11 11:04:45;;;;;;;23.98;22.27;;;15.10;99.90;;;;;;5229165;28;20033;-74
2023/05/11 11:07:18;;;;;;;21.85;20.10;;;15.90;99.90;;;;;;5226192;28;20484;-74
2023/05/11 11:10:03;;;;;;;20.70;18.85;;;15.90;99.90;;;;;;5229225;28;20485;-73
2023/05/11 11:12:34;;;;;;;22.80;21.00;;;15.60;99.90;;;;;;5227833;28;20040;-73
2023/05/11 11:15:06;;;;;;;23.10;21.15;;;15.30;99.90;;;;;;5228935;28;20041;-73
2023/05/11 11:17:37;;;;;;;22.83;21.13;;;15.20;99.90;;;;;;5228916;28;20102;-74
2023/05/11 11:20:28;;;;;;;20.75;19.35;;;15.80;99.90;;;;;;5228746;28;20480;-72
2023/05/11 11:22:59;;;;;;;22.00;20.23;;;15.50;99.90;;;;;;5228723;28;20044;-73
2023/05/11 11:25:49;;;;;;;20.67;19.10;;;15.30;99.90;;;;;;5228754;28;20496;-75
2023/05/11 11:28:20;;;;;;;;;;;14.90;99.90;;;;;;5228975;28;20025;-74
2023/05/11 11:31:25;;;;;;;24.00;22.40;;;15.20;99.90;;;;;;5228622;28;20296;-73
2023/05/11 11:33:59;;;;;;;22.33;20.40;;;15.00;99.90;;;;;;5228586;28;20056;-74
2023/05/11 11:36:53;;;;;;;23.20;21.30;;;15.00;99.90;;;;;;5228460;28;20041;-74
2023/05/11 11:39:25;;;;;;;24.30;22.25;;;15.10;99.90;;;;;;5218885;28;20052;-74
2023/05/11 11:42:04;;;;;;;24.98;23.25;;;15.00;99.90;;;;;;5228559;28;20389;-73
2023/05/11 11:44:36;;;;;;;24.35;22.73;;;15.00;99.90;;;;;;5227361;28;20383;-74
2023/05/11 11:47:14;;;;;;;25.83;23.90;;;14.90;99.90;;;;;;5227304;28;20048;-73
2023/05/11 11:49:49;;;;;;;25.60;23.38;;;15.10;99.90;;;;;;5226944;28;20029;-73
2023/05/11 11:52:26;;;;;;;24.15;22.08;;;15.00;99.90;;;;;;5228049;28;20087;-75
2023/05/11 11:55:04;;;;;;;25.02;22.92;;;14.60;99.90;;;;;;5228103;28;20032;-75
2023/05/11 11:57:34;;;;;;;24.13;22.42;;;14.90;99.90;;;;;;5228627;28;20127;-75
2023/05/11 12:00:09;;;;;;;25.73;23.83;;;14.70;99.90;;;;;;5228615;28;20144;-74
2023/05/11 12:02:44;;;;;;;29.77;27.10;;;14.60;99.90;;;;;;5228194;28;20055;-73
2023/05/11 12:05:17;;;;;;;32.78;30.42;;;14.60;99.90;;;;;;5228198;28;20025;-74
2023/05/11 12:07:50;;;;;;;31.05;28.83;;;14.60;99.90;;;;;;5227698;28;20025;-73
2023/05/11 12:10:22;;;;;;;31.27;28.98;;;14.70;99.90;;;;;;5227969;28;20039;-73
2023/05/11 12:12:56;;;;;;;28.90;26.70;;;14.70;99.90;;;;;;5227878;28;20043;-72
2023/05/11 12:15:31;;;;;;;32.38;30.13;;;14.60;99.90;;;;;;5227549;28;20048;-73
2023/05/11 12:18:02;;;;;;;32.10;29.80;;;14.70;99.90;;;;;;5226530;28;20507;-73
2023/05/11 12:20:33;;;;;;;30.23;28.08;;;14.60;99.90;;;;;;5227766;28;20127;-74
2023/05/11 12:23:03;;;;;;;31.58;29.20;;;14.70;99.90;;;;;;5227705;28;20103;-72
2023/05/11 12:25:34;;;;;;;29.52;27.45;;;14.70;99.90;;;;;;5227430;28;20025;-74
2023/05/11 12:28:05;;;;;;;27.08;24.85;;;14.80;99.90;;;;;;5227648;28;20025;-74
2023/05/11 12:30:36;;;;;;;24.58;22.88;;;15.30;99.90;;;;;;5227434;28;20025;-73
2023/05/11 12:33:07;;;;;;;22.15;20.02;;;15.90;99.90;;;;;;5226989;28;20050;-73
2023/05/11 12:35:39;;;;;;;21.13;19.45;;;15.40;99.90;;;;;;5227121;28;20032;-73
2023/05/11 12:38:10;;;;;;;23.25;21.27;;;15.30;99.90;;;;;;5227240;28;20103;-74
2023/05/11 12:40:49;;;;;;;25.10;23.10;;;15.00;99.90;;;;;;5227469;28;20108;-74
2023/05/11 12:43:21;;;;;;;24.02;22.15;;;14.70;99.90;;;;;;5227462;28;20092;-74
2023/05/11 12:45:52;;;;;;;26.38;24.38;;;14.60;99.90;;;;;;5227275;28;20031;-73
2023/05/11 12:48:23;;;;;;;25.38;23.40;;;14.80;99.90;;;;;;5226004;28;20021;-74
2023/05/11 12:50:55;;;;;;;24.27;22.38;;;14.80;99.90;;;;;;5227274;28;20041;-74
2023/05/11 12:53:26;;;;;;;24.40;22.38;;;14.80;99.90;;;;;;5225704;28;20025;-74
2023/05/11 12:55:58;;;;;;;27.75;25.42;;;14.50;99.90;;;;;;5225647;28;20043;-73
2023/05/11 12:58:40;;;;;;;27.98;26.08;;;14.50;99.90;;;;;;5693113;22;20061;-74